Time;durP1;ratioP1;P1;durP2;ratioP2;P2;SDS_P1;SDS_P2;PMS_P1;PMS_P2;Temp;Humidity;BMP_temperature;BMP_pressure;BME280_temperature;BME280_humidity;BME280_pressure;Samples;Min_cycle;Max_cycle;Signal;HPM_P1;HPM_P2
2022/08/03 00:02:11;;;;;;;6.20;5.60;;;22.80;83.30;;;;;;5096976;28;20488;-54
2022/08/03 00:04:40;;;;;;;6.10;4.67;;;22.70;83.60;;;;;;5096946;28;20469;-50
2022/08/03 00:07:07;;;;;;;7.17;5.50;;;22.70;84.70;;;;;;5096858;28;20523;-48
2022/08/03 00:09:34;;;;;;;5.57;4.67;;;22.70;84.90;;;;;;5096659;28;20560;-53
2022/08/03 00:12:01;;;;;;;7.63;4.33;;;22.70;85.40;;;;;;5096596;28;20441;-57
2022/08/03 00:14:27;;;;;;;5.57;5.00;;;22.70;86.00;;;;;;5096813;28;20667;-55
2022/08/03 00:16:54;;;;;;;4.57;3.90;;;22.70;86.40;;;;;;5096699;28;20499;-45
2022/08/03 00:19:21;;;;;;;7.13;4.30;;;22.70;86.60;;;;;;5096491;28;20883;-49
2022/08/03 00:21:49;;;;;;;4.87;3.83;;;22.70;86.80;;;;;;5096645;28;20446;-53
2022/08/03 00:24:16;;;;;;;4.17;3.77;;;22.70;87.10;;;;;;5096622;28;20442;-47
2022/08/03 00:26:46;;;;;;;6.80;5.47;;;22.70;87.80;;;;;;5096411;28;20449;-52
2022/08/03 00:29:12;;;;;;;7.17;4.37;;;22.70;88.00;;;;;;5096111;28;20492;-53
2022/08/03 00:31:39;;;;;;;3.87;3.53;;;22.70;88.30;;;;;;5096527;28;20463;-53
2022/08/03 00:34:06;;;;;;;4.40;4.00;;;22.60;88.60;;;;;;5096070;28;20483;-53
2022/08/03 00:36:33;;;;;;;5.43;4.70;;;22.60;89.40;;;;;;5096546;28;20440;-53
2022/08/03 00:39:01;;;;;;;5.20;4.30;;;22.50;90.00;;;;;;5096154;28;20909;-54
2022/08/03 00:41:28;;;;;;;4.67;4.27;;;22.50;90.40;;;;;;5096299;28;20957;-53
2022/08/03 00:43:55;;;;;;;4.53;4.00;;;22.40;90.70;;;;;;5096358;28;20451;-56
2022/08/03 00:46:22;;;;;;;5.77;4.60;;;22.30;91.00;;;;;;5095750;28;20473;-55
2022/08/03 00:48:49;;;;;;;6.90;4.50;;;22.30;91.40;;;;;;5096094;28;20481;-52
2022/08/03 00:51:16;;;;;;;8.67;4.30;;;22.20;91.80;;;;;;5095340;28;20446;-55
2022/08/03 00:53:44;;;;;;;5.43;4.00;;;22.10;92.20;;;;;;5096024;28;20587;-52
2022/08/03 00:56:15;;;;;;;6.10;4.13;;;22.20;92.60;;;;;;5096092;28;20537;-53
2022/08/03 00:58:44;;;;;;;6.03;4.50;;;22.20;93.00;;;;;;5096002;28;20465;-51
2022/08/03 01:01:12;;;;;;;6.23;4.10;;;22.20;93.30;;;;;;5095674;28;20456;-55
2022/08/03 01:03:41;;;;;;;4.70;4.23;;;22.30;93.30;;;;;;5095558;28;20471;-50
2022/08/03 01:06:16;;;;;;;5.00;4.20;;;22.30;93.20;;;;;;5096118;28;20570;-54
2022/08/03 01:08:48;;;;;;;9.40;4.20;;;22.40;93.30;;;;;;5095450;28;20469;-54
2022/08/03 01:11:24;;;;;;;5.40;4.13;;;22.40;93.10;;;;;;5095781;28;20520;-55
2022/08/03 01:13:58;;;;;;;4.70;4.10;;;22.40;93.20;;;;;;5094952;28;20445;-54
2022/08/03 01:16:31;;;;;;;7.80;4.47;;;22.40;92.90;;;;;;5095049;28;20473;-53
2022/08/03 01:19:05;;;;;;;4.73;3.57;;;22.40;92.90;;;;;;5095064;28;20442;-52
2022/08/03 01:21:40;;;;;;;4.13;3.70;;;22.50;93.00;;;;;;5094526;28;20471;-55
2022/08/03 01:24:20;;;;;;;6.13;3.90;;;22.50;93.00;;;;;;5095086;28;20455;-54
2022/08/03 01:27:04;;;;;;;5.87;4.83;;;22.50;92.80;;;;;;5095086;28;20453;-55
2022/08/03 01:34:47;;;;;;;7.93;3.93;;;22.60;92.40;;;;;;5238604;22;20475;-48
2022/08/03 01:37:21;;;;;;;6.73;4.13;;;22.60;92.20;;;;;;5129579;27;20449;-51
2022/08/03 01:39:50;;;;;;;4.77;3.93;;;22.60;92.10;;;;;;5115177;28;20428;-49
2022/08/03 01:42:18;;;;;;;7.83;3.20;;;22.60;92.20;;;;;;5115315;28;20450;-53
2022/08/03 01:44:50;;;;;;;5.30;3.60;;;22.50;92.30;;;;;;5114780;28;20444;-49
2022/08/03 01:47:21;;;;;;;3.77;3.47;;;22.50;92.30;;;;;;5115134;28;20513;-52
2022/08/03 01:49:51;;;;;;;4.37;3.50;;;22.50;92.40;;;;;;5114714;28;20529;-55
2022/08/03 01:52:22;;;;;;;6.80;3.63;;;22.50;92.40;;;;;;5114731;28;20441;-56
2022/08/03 01:54:52;;;;;;;4.77;4.17;;;22.50;92.60;;;;;;5114199;28;20426;-51
2022/08/03 01:57:21;;;;;;;4.27;3.80;;;22.50;92.60;;;;;;5113415;28;20454;-53
2022/08/03 01:59:50;;;;;;;3.50;3.10;;;22.50;93.00;;;;;;5113822;28;20501;-51
2022/08/03 02:02:21;;;;;;;6.00;4.23;;;22.50;92.60;;;;;;5113724;28;20464;-51
2022/08/03 02:04:57;;;;;;;3.60;3.30;;;22.50;92.60;;;;;;5114366;28;20425;-54
2022/08/03 02:07:30;;;;;;;4.70;3.90;;;22.50;92.30;;;;;;5113733;28;20437;-52
2022/08/03 02:09:58;;;;;;;4.50;3.93;;;22.50;92.40;;;;;;5114196;28;20488;-55
2022/08/03 02:12:31;;;;;;;6.10;4.53;;;22.50;93.10;;;;;;5113835;28;20450;-55
2022/08/03 02:15:00;;;;;;;5.20;3.23;;;22.50;93.00;;;;;;5114515;28;20480;-52
2022/08/03 02:17:28;;;;;;;6.10;4.03;;;22.50;92.70;;;;;;5114409;28;20445;-49
2022/08/03 02:20:03;;;;;;;6.27;4.37;;;22.50;93.20;;;;;;5113949;28;20858;-53
2022/08/03 02:22:40;;;;;;;3.60;3.30;;;22.50;93.10;;;;;;5114813;28;20448;-46
2022/08/03 02:25:09;;;;;;;4.10;3.67;;;22.50;92.40;;;;;;5114004;28;20473;-53
2022/08/03 02:27:39;;;;;;;3.67;3.37;;;22.50;92.40;;;;;;5114177;28;20461;-54
2022/08/03 02:30:09;;;;;;;5.20;3.73;;;22.50;92.70;;;;;;5113326;28;20470;-53
2022/08/03 02:32:38;;;;;;;5.47;3.47;;;22.50;93.30;;;;;;5114291;28;20445;-51
2022/08/03 02:35:11;;;;;;;5.80;3.97;;;22.50;92.60;;;;;;5113833;28;20469;-50
2022/08/03 02:37:45;;;;;;;4.17;3.23;;;22.50;93.30;;;;;;5114050;28;20448;-51
2022/08/03 02:40:21;;;;;;;4.97;3.73;;;22.50;92.90;;;;;;5117678;28;20477;-53
2022/08/03 02:42:51;;;;;;;5.43;3.63;;;22.50;92.90;;;;;;5118693;28;20455;-51
2022/08/03 02:45:20;;;;;;;3.53;3.20;;;22.50;92.80;;;;;;5118210;28;20465;-53
2022/08/03 02:47:54;;;;;;;5.90;3.40;;;22.50;92.90;;;;;;5118055;28;20484;-51
2022/08/03 02:50:23;;;;;;;5.63;3.50;;;22.50;93.70;;;;;;5117758;28;20481;-55
2022/08/03 02:52:52;;;;;;;3.83;3.50;;;22.50;93.10;;;;;;5117871;28;20430;-52
2022/08/03 02:55:20;;;;;;;4.97;3.60;;;22.50;93.00;;;;;;5117761;28;20484;-52
2022/08/03 02:57:49;;;;;;;6.60;4.20;;;22.50;93.20;;;;;;5117459;28;20524;-50
2022/08/03 03:00:16;;;;;;;5.90;4.00;;;22.60;93.10;;;;;;5117919;28;20488;-54
2022/08/03 03:02:46;;;;;;;3.93;3.60;;;22.60;93.20;;;;;;5118077;28;20467;-52
2022/08/03 03:05:21;;;;;;;5.27;3.40;;;22.60;93.40;;;;;;5118141;28;20520;-53
2022/08/03 03:07:50;;;;;;;4.23;3.40;;;22.60;92.90;;;;;;5117823;28;20435;-53
2022/08/03 03:10:16;;;;;;;4.27;3.83;;;22.60;93.10;;;;;;5117933;28;20523;-53
2022/08/03 03:12:45;;;;;;;4.23;3.90;;;22.60;92.80;;;;;;5117596;28;20437;-52
2022/08/03 03:15:12;;;;;;;6.20;3.80;;;22.50;93.10;;;;;;5117594;28;20461;-52
2022/08/03 03:17:47;;;;;;;4.33;3.93;;;22.50;93.30;;;;;;5117887;28;20532;-49
2022/08/03 03:20:15;;;;;;;4.57;3.87;;;22.40;93.40;;;;;;5117343;28;20445;-52
2022/08/03 03:22:47;;;;;;;4.77;4.37;;;22.40;93.50;;;;;;5117315;28;20445;-53
2022/08/03 03:25:22;;;;;;;4.27;3.87;;;22.30;93.40;;;;;;5117175;28;20477;-51
2022/08/03 03:27:54;;;;;;;3.87;3.57;;;22.30;93.90;;;;;;5117547;28;20451;-54
2022/08/03 03:30:21;;;;;;;3.97;3.67;;;22.30;94.00;;;;;;5117232;28;20489;-54
2022/08/03 03:32:47;;;;;;;6.03;3.97;;;22.20;94.40;;;;;;5117790;28;20445;-56
2022/08/03 03:35:15;;;;;;;4.30;3.90;;;22.30;94.20;;;;;;5117424;28;20465;-51
2022/08/03 03:37:45;;;;;;;4.83;4.43;;;22.20;94.60;;;;;;5117168;28;20455;-54
2022/08/03 03:40:13;;;;;;;4.60;4.17;;;22.20;94.60;;;;;;5117410;28;20491;-53
2022/08/03 03:42:44;;;;;;;6.63;5.20;;;22.20;94.30;;;;;;5116909;28;20442;-47
2022/08/03 03:45:15;;;;;;;4.27;3.87;;;22.20;94.40;;;;;;5116962;28;20472;-53
2022/08/03 03:47:43;;;;;;;5.17;3.90;;;22.30;94.70;;;;;;5117282;28;20482;-51
2022/08/03 03:50:19;;;;;;;4.37;3.73;;;22.30;94.70;;;;;;5116746;28;20537;-53
2022/08/03 03:52:50;;;;;;;7.43;4.70;;;22.30;95.70;;;;;;5116873;28;20425;-52
2022/08/03 03:55:20;;;;;;;5.93;4.43;;;22.30;94.40;;;;;;5117436;28;20453;-52
2022/08/03 03:57:49;;;;;;;5.20;4.47;;;22.30;94.80;;;;;;5116748;28;20494;-52
2022/08/03 04:00:26;;;;;;;5.13;4.47;;;22.20;94.70;;;;;;5116702;28;20441;-54
2022/08/03 04:02:54;;;;;;;5.07;4.63;;;22.30;94.60;;;;;;5116345;28;20497;-49
2022/08/03 04:11:02;;;;;;;6.77;4.70;;;22.30;94.40;;;;;;5116244;28;20507;-54
2022/08/03 04:13:37;;;;;;;5.40;4.93;;;22.30;94.30;;;;;;5116813;28;20488;-48
2022/08/03 04:16:06;;;;;;;6.17;5.10;;;22.30;94.20;;;;;;5116992;28;20512;-52
2022/08/03 04:18:37;;;;;;;5.77;4.90;;;22.30;94.30;;;;;;5116328;28;20449;-50
2022/08/03 04:21:07;;;;;;;7.53;5.33;;;22.30;94.10;;;;;;5116719;28;20461;-52
2022/08/03 04:23:41;;;;;;;5.50;5.00;;;22.30;94.20;;;;;;5116113;28;20450;-52
2022/08/03 04:26:16;;;;;;;6.00;5.00;;;22.30;93.80;;;;;;5116637;28;20465;-53
2022/08/03 04:28:48;;;;;;;5.33;4.90;;;22.30;94.10;;;;;;5116656;28;20441;-55
2022/08/03 04:31:16;;;;;;;6.27;5.57;;;22.40;93.60;;;;;;5116018;28;20541;-54
2022/08/03 04:33:45;;;;;;;6.43;4.50;;;22.40;93.80;;;;;;5116167;28;20444;-46
2022/08/03 04:36:17;;;;;;;6.10;5.13;;;22.30;93.90;;;;;;5116133;28;20460;-54
2022/08/03 04:38:52;;;;;;;5.17;4.77;;;22.30;94.40;;;;;;5116154;28;20450;-46
2022/08/03 04:41:20;;;;;;;12.00;5.77;;;22.30;94.60;;;;;;5115555;28;20468;-51
2022/08/03 04:43:54;;;;;;;12.90;6.03;;;22.20;94.80;;;;;;5116110;28;20426;-49
2022/08/03 04:46:23;;;;;;;8.73;6.70;;;22.20;95.20;;;;;;5116014;28;20457;-52
2022/08/03 04:48:51;;;;;;;7.60;5.60;;;22.10;95.60;;;;;;5115380;28;20421;-55
2022/08/03 04:51:18;;;;;;;9.07;5.10;;;22.10;96.10;;;;;;5097629;28;20509;-54
2022/08/03 04:53:45;;;;;;;6.43;5.23;;;22.10;96.10;;;;;;5096260;28;20942;-56
2022/08/03 04:56:12;;;;;;;8.23;4.93;;;22.10;96.40;;;;;;5095890;28;20536;-56
2022/08/03 04:58:39;;;;;;;8.70;5.80;;;22.10;96.70;;;;;;5096011;28;20440;-54
2022/08/03 05:01:13;;;;;;;9.80;5.03;;;22.00;96.60;;;;;;5095318;28;20906;-56
2022/08/03 05:03:40;;;;;;;7.10;4.23;;;22.10;97.20;;;;;;5095887;28;20892;-56
2022/08/03 05:06:10;;;;;;;5.07;3.67;;;22.10;96.80;;;;;;5096504;28;20441;-58
2022/08/03 05:08:37;;;;;;;6.33;4.60;;;22.10;96.90;;;;;;5097625;28;20441;-55
2022/08/03 05:11:04;;;;;;;6.27;3.80;;;22.20;96.30;;;;;;5098201;28;20477;-56
2022/08/03 05:13:31;;;;;;;5.57;4.20;;;22.20;96.40;;;;;;5098618;28;20473;-55
2022/08/03 05:15:58;;;;;;;8.00;4.50;;;22.20;95.60;;;;;;5100026;28;20528;-56
2022/08/03 05:18:31;;;;;;;4.37;3.80;;;22.30;96.60;;;;;;5098304;28;20540;-59
2022/08/03 05:20:57;;;;;;;5.00;4.30;;;22.30;95.30;;;;;;5098555;28;20444;-56
2022/08/03 05:23:24;;;;;;;8.53;4.00;;;22.40;95.30;;;;;;5099146;28;20997;-53
2022/08/03 05:25:51;;;;;;;5.70;4.37;;;22.40;94.10;;;;;;5099128;28;20460;-54
2022/08/03 05:28:18;;;;;;;7.30;4.63;;;22.40;94.00;;;;;;5098765;28;20469;-56
2022/08/03 05:30:45;;;;;;;13.20;6.70;;;22.50;94.20;;;;;;5098015;28;20477;-56
2022/08/03 05:33:13;;;;;;;6.23;5.10;;;22.60;94.50;;;;;;5097962;28;20469;-59
2022/08/03 05:35:41;;;;;;;5.10;4.00;;;22.60;94.00;;;;;;5098085;28;20445;-55
2022/08/03 05:38:08;;;;;;;6.17;4.23;;;22.70;94.50;;;;;;5097767;28;20470;-56
2022/08/03 05:40:34;;;;;;;5.93;4.30;;;22.70;93.40;;;;;;5097910;28;20430;-56
2022/08/03 05:43:01;;;;;;;8.70;4.53;;;22.70;93.50;;;;;;5097809;28;20471;-56
2022/08/03 05:45:32;;;;;;;3.33;3.03;;;22.80;93.30;;;;;;5097898;28;20450;-58
2022/08/03 05:48:02;;;;;;;5.73;4.13;;;22.90;93.30;;;;;;5097291;28;20770;-56
2022/08/03 05:50:29;;;;;;;8.50;4.23;;;22.90;93.40;;;;;;5097427;28;20496;-56
2022/08/03 05:52:57;;;;;;;6.17;3.40;;;22.90;93.40;;;;;;5097100;28;20475;-56
2022/08/03 05:55:24;;;;;;;8.00;3.70;;;23.00;93.80;;;;;;5097122;28;20437;-54
2022/08/03 05:57:51;;;;;;;10.90;4.50;;;23.10;93.00;;;;;;5096976;28;20465;-56
2022/08/03 06:00:18;;;;;;;6.57;3.80;;;23.10;92.60;;;;;;5097440;28;20516;-56
2022/08/03 06:02:45;;;;;;;6.73;4.37;;;23.20;92.30;;;;;;5096955;28;20548;-57
2022/08/03 06:05:12;;;;;;;8.20;4.00;;;23.30;92.50;;;;;;5097497;28;20592;-55
2022/08/03 06:07:39;;;;;;;4.30;3.90;;;23.30;92.10;;;;;;5096741;28;20537;-49
2022/08/03 06:10:08;;;;;;;3.80;3.50;;;23.40;91.90;;;;;;5096939;28;20461;-54
2022/08/03 06:12:40;;;;;;;8.43;4.20;;;23.50;92.50;;;;;;5097019;28;20450;-55
2022/08/03 06:15:08;;;;;;;6.90;3.97;;;23.60;92.20;;;;;;5097120;28;20873;-55
2022/08/03 06:17:43;;;;;;;13.57;4.20;;;23.60;91.80;;;;;;5097495;28;20449;-54
2022/08/03 06:20:11;;;;;;;4.50;3.20;;;23.70;91.80;;;;;;5097051;28;20435;-54
2022/08/03 06:22:38;;;;;;;4.93;3.20;;;23.80;92.10;;;;;;5097180;28;20450;-56
2022/08/03 06:25:06;;;;;;;8.93;3.13;;;23.90;91.10;;;;;;5096758;28;20443;-55
2022/08/03 06:27:35;;;;;;;3.83;3.10;;;23.90;90.80;;;;;;5097366;28;20468;-57
2022/08/03 06:30:02;;;;;;;4.30;3.50;;;24.00;90.30;;;;;;5097026;28;20963;-56
2022/08/03 06:32:29;;;;;;;6.47;4.10;;;24.10;90.30;;;;;;5096918;28;20457;-56
2022/08/03 06:34:55;;;;;;;7.23;4.40;;;24.20;87.70;;;;;;5096799;28;20450;-52
2022/08/03 06:37:23;;;;;;;6.90;4.20;;;24.30;86.40;;;;;;5096646;28;20464;-54
2022/08/03 06:39:50;;;;;;;5.10;3.77;;;24.40;87.10;;;;;;5096874;28;20442;-53
2022/08/03 06:42:17;;;;;;;4.10;3.20;;;24.40;85.80;;;;;;5096828;28;20510;-51
2022/08/03 06:44:45;;;;;;;5.87;2.63;;;24.50;83.60;;;;;;5097432;28;20465;-55
2022/08/03 06:47:12;;;;;;;3.47;2.80;;;24.70;83.80;;;;;;5098107;28;20452;-56
2022/08/03 06:49:39;;;;;;;5.87;2.77;;;24.80;82.50;;;;;;5097389;28;20462;-56
2022/08/03 06:52:06;;;;;;;5.70;2.77;;;24.90;81.20;;;;;;5096933;28;20831;-55
2022/08/03 06:54:37;;;;;;;3.50;3.17;;;25.00;80.40;;;;;;5096823;28;20441;-54
2022/08/03 06:57:06;;;;;;;6.23;3.60;;;25.10;81.30;;;;;;5096664;28;20453;-54
2022/08/03 06:59:33;;;;;;;3.10;2.63;;;25.10;81.60;;;;;;5097341;28;20488;-52
2022/08/03 07:02:02;;;;;;;5.80;3.90;;;25.20;80.50;;;;;;5096993;28;20480;-52
2022/08/03 07:04:32;;;;;;;4.33;3.13;;;25.30;80.10;;;;;;5096487;28;20465;-54
2022/08/03 07:06:59;;;;;;;6.87;2.73;;;25.40;79.60;;;;;;5096691;28;20483;-56
2022/08/03 07:09:25;;;;;;;4.63;2.83;;;25.50;79.30;;;;;;5096620;28;20469;-55
2022/08/03 07:11:52;;;;;;;2.97;2.67;;;25.60;79.10;;;;;;5095188;28;20477;-54
2022/08/03 07:14:19;;;;;;;4.57;2.80;;;25.70;78.80;;;;;;5095071;28;20477;-55
2022/08/03 07:16:46;;;;;;;4.63;3.50;;;25.80;78.60;;;;;;5076071;28;20439;-53
2022/08/03 07:19:14;;;;;;;6.10;3.67;;;26.00;78.00;;;;;;5076444;28;20560;-55
2022/08/03 07:21:41;;;;;;;3.00;2.70;;;26.00;76.80;;;;;;5076640;28;20438;-52
2022/08/03 07:24:08;;;;;;;4.80;3.03;;;26.10;76.80;;;;;;5088443;28;20949;-53
2022/08/03 07:26:35;;;;;;;4.13;2.63;;;26.20;76.00;;;;;;5099551;28;20436;-53
2022/08/03 07:29:01;;;;;;;4.30;2.60;;;26.60;75.50;;;;;;5099211;28;20445;-51
2022/08/03 07:31:29;;;;;;;2.83;2.47;;;28.00;72.80;;;;;;5098994;28;20483;-56
2022/08/03 07:33:56;;;;;;;2.60;2.40;;;29.50;68.90;;;;;;5099487;28;20444;-56
2022/08/03 07:36:24;;;;;;;4.30;2.60;;;30.40;63.90;;;;;;5098917;28;20465;-54
2022/08/03 07:38:51;;;;;;;3.67;2.57;;;30.40;62.40;;;;;;5098755;28;20453;-57
2022/08/03 07:41:18;;;;;;;8.50;2.60;;;30.00;61.10;;;;;;5098272;28;20469;-56
2022/08/03 07:43:45;;;;;;;3.53;2.50;;;29.70;63.00;;;;;;5098573;28;20441;-54
2022/08/03 07:46:12;;;;;;;2.70;2.50;;;29.60;62.40;;;;;;5098853;28;20445;-51
2022/08/03 07:48:38;;;;;;;3.50;2.10;;;30.20;60.90;;;;;;5099388;28;20528;-55
2022/08/03 07:51:05;;;;;;;3.27;2.77;;;31.40;59.70;;;;;;5099226;28;20580;-56
2022/08/03 07:53:33;;;;;;;3.23;2.77;;;33.20;56.40;;;;;;5099280;28;20446;-54
2022/08/03 07:56:00;;;;;;;7.70;2.90;;;34.70;53.40;;;;;;5100688;28;20469;-53
2022/08/03 07:58:27;;;;;;;3.47;2.77;;;36.50;51.20;;;;;;5101947;28;20450;-54
2022/08/03 08:00:54;;;;;;;4.93;3.00;;;38.00;46.90;;;;;;5101562;28;20472;-58
2022/08/03 08:03:21;;;;;;;4.07;3.00;;;39.10;44.20;;;;;;5101500;28;20452;-57
2022/08/03 08:05:48;;;;;;;3.93;3.00;;;39.90;41.70;;;;;;5100506;28;20487;-55
2022/08/03 08:08:15;;;;;;;4.00;3.60;;;40.60;40.60;;;;;;5101690;28;20426;-57
2022/08/03 08:10:43;;;;;;;3.17;2.87;;;41.50;38.90;;;;;;5101876;28;20485;-56
2022/08/03 08:13:10;;;;;;;2.30;2.10;;;42.40;37.50;;;;;;5100099;28;20438;-57
2022/08/03 08:15:37;;;;;;;5.80;3.23;;;42.60;36.00;;;;;;5099213;28;20517;-54
2022/08/03 08:18:04;;;;;;;2.70;2.50;;;42.70;35.60;;;;;;5099777;28;20437;-57
2022/08/03 08:20:33;;;;;;;2.97;2.70;;;43.00;35.00;;;;;;5101166;28;20447;-54
2022/08/03 08:23:01;;;;;;;3.27;2.30;;;43.00;34.30;;;;;;5099454;28;20484;-56
2022/08/03 08:25:29;;;;;;;3.17;2.87;;;42.70;33.80;;;;;;5099031;28;20449;-55
2022/08/03 08:28:00;;;;;;;2.93;2.30;;;42.40;33.90;;;;;;5098876;28;20469;-54
2022/08/03 08:30:27;;;;;;;3.87;2.50;;;41.90;33.90;;;;;;5098715;28;20473;-56
2022/08/03 08:32:54;;;;;;;4.57;2.70;;;41.40;34.50;;;;;;5098195;28;20454;-55
2022/08/03 08:35:21;;;;;;;2.90;2.57;;;41.30;34.40;;;;;;5097361;28;20454;-56
2022/08/03 08:37:48;;;;;;;3.07;2.87;;;41.40;34.60;;;;;;5099103;28;20483;-54
2022/08/03 08:40:14;;;;;;;5.23;2.30;;;41.20;34.20;;;;;;5099518;28;20520;-57
2022/08/03 08:42:43;;;;;;;3.07;2.77;;;41.10;34.60;;;;;;5098520;28;20484;-55
2022/08/03 08:45:13;;;;;;;3.97;2.73;;;40.80;34.20;;;;;;5099019;28;20866;-55
2022/08/03 08:47:44;;;;;;;8.00;2.60;;;40.90;34.50;;;;;;5098687;28;20507;-52
2022/08/03 08:50:12;;;;;;;2.50;2.20;;;41.10;34.40;;;;;;5098294;28;20521;-56
2022/08/03 08:52:40;;;;;;;2.47;2.27;;;41.10;34.50;;;;;;5099112;28;20500;-59
2022/08/03 08:55:09;;;;;;;5.37;2.70;;;41.20;34.40;;;;;;5099906;28;20476;-57
2022/08/03 08:57:37;;;;;;;2.80;2.37;;;41.50;33.90;;;;;;5100223;28;20469;-56
2022/08/03 09:00:08;;;;;;;2.80;2.50;;;41.60;33.70;;;;;;5099160;28;20441;-54
2022/08/03 09:02:36;;;;;;;2.70;2.50;;;41.70;33.00;;;;;;5098265;28;20474;-57
2022/08/03 09:05:04;;;;;;;3.10;2.37;;;41.60;32.50;;;;;;5098120;28;20440;-57
2022/08/03 09:07:31;;;;;;;3.80;2.80;;;41.70;32.70;;;;;;5097541;28;20437;-57
2022/08/03 09:09:57;;;;;;;2.97;2.40;;;41.80;31.60;;;;;;5097716;28;20898;-57
2022/08/03 09:12:24;;;;;;;2.40;2.20;;;41.80;31.70;;;;;;5096770;28;20480;-54
2022/08/03 09:14:51;;;;;;;2.27;2.03;;;41.60;32.60;;;;;;5096934;28;20481;-57
2022/08/03 09:17:18;;;;;;;3.50;2.43;;;41.50;33.20;;;;;;5097680;28;20444;-57
2022/08/03 09:20:05;;;;;;;7.60;2.77;;;41.70;32.30;;;;;;5097556;28;20489;-57
2022/08/03 09:22:33;;;;;;;3.67;2.20;;;41.80;32.50;;;;;;5097739;28;20854;-53
2022/08/03 09:25:02;;;;;;;2.50;2.27;;;41.90;32.70;;;;;;5098440;28;20449;-56
2022/08/03 09:27:29;;;;;;;3.70;2.27;;;41.80;32.40;;;;;;5099400;28;20504;-54
2022/08/03 09:29:56;;;;;;;4.33;3.63;;;42.20;31.90;;;;;;5098215;28;20437;-56
2022/08/03 09:32:24;;;;;;;2.40;2.00;;;42.10;32.10;;;;;;5096601;28;20484;-56
2022/08/03 09:34:53;;;;;;;4.20;2.90;;;42.00;32.90;;;;;;5097598;28;20445;-55
2022/08/03 09:37:24;;;;;;;5.73;3.03;;;42.20;32.00;;;;;;5097799;28;20475;-57
2022/08/03 09:39:51;;;;;;;3.60;3.27;;;42.50;31.60;;;;;;5097150;28;20473;-57
2022/08/03 09:42:21;;;;;;;4.13;2.67;;;42.40;31.80;;;;;;5097212;28;20536;-57
2022/08/03 09:44:49;;;;;;;3.83;2.80;;;42.40;31.60;;;;;;5098361;28;20477;-59
2022/08/03 09:47:26;;;;;;;3.33;2.83;;;42.50;31.30;;;;;;5098440;28;20462;-58
2022/08/03 09:50:00;;;;;;;2.70;2.20;;;42.70;31.30;;;;;;5099601;28;20554;-58
2022/08/03 09:52:32;;;;;;;7.27;2.63;;;42.70;30.80;;;;;;5098579;28;20791;-58
2022/08/03 09:55:03;;;;;;;2.60;2.40;;;42.40;31.90;;;;;;5098233;28;20556;-58
2022/08/03 09:57:30;;;;;;;2.20;2.00;;;42.20;31.10;;;;;;5099825;28;20426;-60
2022/08/03 10:00:09;;;;;;;2.70;2.50;;;42.10;30.90;;;;;;5099328;28;20953;-58
2022/08/03 10:02:37;;;;;;;2.70;2.50;;;41.80;31.40;;;;;;5097894;28;20484;-59
2022/08/03 10:05:07;;;;;;;2.33;2.07;;;41.50;32.80;;;;;;5098412;28;20469;-59
2022/08/03 10:07:43;;;;;;;4.13;2.50;;;41.50;31.60;;;;;;5097553;28;20844;-59
2022/08/03 10:10:10;;;;;;;2.40;2.20;;;41.50;32.00;;;;;;5097629;28;20480;-62
2022/08/03 10:12:37;;;;;;;3.20;2.53;;;41.50;31.60;;;;;;5098041;28;20545;-58
2022/08/03 10:15:05;;;;;;;3.23;2.10;;;41.50;31.50;;;;;;5097569;28;20971;-59
2022/08/03 10:17:32;;;;;;;3.60;2.30;;;41.40;31.90;;;;;;5097154;28;20945;-58
2022/08/03 10:19:59;;;;;;;2.50;2.30;;;41.20;31.70;;;;;;5097749;28;20453;-59
2022/08/03 10:22:32;;;;;;;2.37;2.17;;;41.20;31.60;;;;;;5097620;28;20483;-62
2022/08/03 10:25:02;;;;;;;2.60;2.10;;;41.00;32.10;;;;;;5097125;28;20432;-57
2022/08/03 10:27:34;;;;;;;2.40;2.20;;;40.90;32.40;;;;;;5096792;28;20435;-62
2022/08/03 10:30:03;;;;;;;5.27;2.47;;;40.70;32.00;;;;;;5097118;28;20449;-59
2022/08/03 10:32:40;;;;;;;2.40;2.20;;;40.60;32.20;;;;;;5097833;28;20481;-55
2022/08/03 10:35:11;;;;;;;5.40;2.30;;;40.20;33.30;;;;;;5096063;28;20425;-63
2022/08/03 10:37:42;;;;;;;2.67;2.47;;;39.80;33.30;;;;;;5077740;28;20442;-58
2022/08/03 10:40:12;;;;;;;3.77;2.33;;;39.60;34.00;;;;;;5075937;28;20423;-59
2022/08/03 10:42:42;;;;;;;6.50;2.50;;;39.30;33.90;;;;;;5076798;28;20434;-60
2022/08/03 10:45:17;;;;;;;2.80;2.37;;;39.50;33.70;;;;;;5077771;28;20452;-63
2022/08/03 10:47:46;;;;;;;2.63;2.43;;;39.70;33.40;;;;;;5078200;28;20468;-60
2022/08/03 10:50:13;;;;;;;2.77;2.57;;;39.60;34.00;;;;;;5076808;28;20449;-60
2022/08/03 10:52:57;;;;;;;4.53;2.70;;;39.20;34.90;;;;;;5076004;28;20569;-60
2022/08/03 10:58:15;;;;;;;3.37;2.67;;;38.10;35.00;;;;;;5075571;28;20843;-59
2022/08/03 11:00:50;;;;;;;2.13;2.00;;;37.70;35.20;;;;;;5080029;28;20859;-60
2022/08/03 11:03:17;;;;;;;3.83;2.37;;;37.50;35.90;;;;;;5079365;28;20473;-59
2022/08/03 11:05:45;;;;;;;2.70;2.20;;;37.40;36.20;;;;;;5079347;28;20938;-57
2022/08/03 11:08:29;;;;;;;3.30;2.33;;;37.20;36.70;;;;;;5079345;28;20466;-60
2022/08/03 11:11:02;;;;;;;3.17;2.73;;;36.90;36.90;;;;;;5078735;28;20435;-61
2022/08/03 11:13:32;;;;;;;3.63;2.30;;;36.60;37.50;;;;;;5084268;28;20456;-60
2022/08/03 11:16:03;;;;;;;2.40;2.20;;;36.60;37.60;;;;;;5098986;28;20967;-61
2022/08/03 11:18:30;;;;;;;2.87;2.57;;;36.30;37.50;;;;;;5099165;28;20445;-58
2022/08/03 11:20:59;;;;;;;2.70;2.50;;;36.20;38.80;;;;;;5098385;28;20481;-55
2022/08/03 11:23:46;;;;;;;2.60;2.40;;;36.20;39.20;;;;;;5098078;28;20480;-60
2022/08/03 11:26:27;;;;;;;2.30;2.10;;;36.20;38.30;;;;;;5099290;28;20900;-59
2022/08/03 11:28:53;;;;;;;2.90;2.60;;;36.10;39.10;;;;;;5099428;28;20465;-58
2022/08/03 11:31:56;;;;;;;2.90;2.60;;;36.10;37.80;;;;;;5100251;28;20584;-59
2022/08/03 11:34:23;;;;;;;4.63;2.43;;;36.20;37.90;;;;;;5099608;28;20556;-59
2022/08/03 11:37:20;;;;;;;4.80;2.67;;;36.30;37.90;;;;;;5099699;28;20465;-59
2022/08/03 11:39:51;;;;;;;3.60;2.97;;;36.30;37.90;;;;;;5099368;28;20465;-58
2022/08/03 11:42:42;;;;;;;4.23;3.33;;;36.10;38.20;;;;;;5099267;28;20424;-56
2022/08/03 11:45:12;;;;;;;3.10;2.80;;;35.90;38.70;;;;;;5098981;28;20472;-58
2022/08/03 11:47:41;;;;;;;2.80;2.60;;;35.80;38.90;;;;;;5099428;28;20448;-58
2022/08/03 11:50:08;;;;;;;2.80;2.60;;;35.80;38.60;;;;;;5098430;28;20433;-57
2022/08/03 11:52:40;;;;;;;7.40;4.10;;;35.70;39.10;;;;;;5099012;28;20461;-58
2022/08/03 11:55:20;;;;;;;3.27;2.80;;;35.70;39.10;;;;;;5099583;28;20449;-61
2022/08/03 11:57:48;;;;;;;3.20;2.87;;;35.70;39.10;;;;;;5099334;28;20441;-55
2022/08/03 12:00:23;;;;;;;3.50;2.70;;;35.70;40.10;;;;;;5098604;28;20448;-55
2022/08/03 12:03:02;;;;;;;2.80;2.50;;;35.50;39.40;;;;;;5098493;28;20476;-59
2022/08/03 12:05:53;;;;;;;2.70;2.23;;;35.40;39.80;;;;;;5099162;28;20437;-58
2022/08/03 12:08:31;;;;;;;3.97;3.33;;;35.30;39.50;;;;;;5078903;28;20465;-57
2022/08/03 12:11:01;;;;;;;3.33;2.70;;;35.30;40.00;;;;;;5098280;28;20969;-58
2022/08/03 12:13:37;;;;;;;2.60;2.33;;;35.20;40.80;;;;;;5098388;28;20489;-59
2022/08/03 12:16:04;;;;;;;2.60;2.40;;;35.10;40.80;;;;;;5097749;28;20445;-57
2022/08/03 12:18:32;;;;;;;4.37;3.97;;;34.60;40.70;;;;;;5097530;28;20891;-60
2022/08/03 12:21:06;;;;;;;3.90;3.50;;;34.40;41.20;;;;;;5097783;28;20453;-59
2022/08/03 12:23:33;;;;;;;3.20;2.90;;;34.40;41.80;;;;;;5098248;28;20525;-60
2022/08/03 12:26:06;;;;;;;3.00;2.70;;;34.40;41.60;;;;;;5088492;28;20541;-58
2022/08/03 12:28:34;;;;;;;8.77;2.67;;;34.50;41.20;;;;;;5098692;28;20449;-59
2022/08/03 12:31:05;;;;;;;3.17;2.93;;;34.40;41.20;;;;;;5093743;28;20471;-58
2022/08/03 12:33:33;;;;;;;2.93;2.63;;;34.20;41.40;;;;;;5091961;28;20763;-55
2022/08/03 12:36:06;;;;;;;2.90;2.60;;;34.10;41.70;;;;;;5097500;28;20480;-55
2022/08/03 12:38:34;;;;;;;2.53;2.33;;;34.00;41.70;;;;;;5097626;28;20475;-57
2022/08/03 12:41:07;;;;;;;2.60;2.40;;;33.90;41.90;;;;;;5098667;28;20475;-64
2022/08/03 12:43:34;;;;;;;2.47;2.27;;;34.00;42.20;;;;;;5099352;28;20440;-58
2022/08/03 12:46:12;;;;;;;4.93;2.67;;;34.00;41.90;;;;;;5099232;28;20520;-58
2022/08/03 12:48:59;;;;;;;6.17;2.93;;;34.00;42.00;;;;;;5099780;28;20459;-59
2022/08/03 12:51:26;;;;;;;6.30;3.00;;;34.10;41.90;;;;;;5099949;28;20469;-57
2022/08/03 12:53:54;;;;;;;5.63;3.70;;;34.20;42.30;;;;;;5100254;28;20456;-58
2022/08/03 12:56:22;;;;;;;2.93;2.73;;;34.40;42.60;;;;;;5099760;28;20465;-60
2022/08/03 12:58:50;;;;;;;3.83;3.10;;;34.50;41.40;;;;;;5099935;28;20423;-55
2022/08/03 13:01:17;;;;;;;4.10;2.53;;;34.60;41.90;;;;;;5098201;28;20561;-57
2022/08/03 13:03:47;;;;;;;4.10;3.00;;;34.60;41.30;;;;;;5098401;28;20441;-59
2022/08/03 13:06:14;;;;;;;5.70;3.40;;;34.60;42.20;;;;;;5097820;28;20839;-59
2022/08/03 13:08:42;;;;;;;3.30;3.00;;;34.70;41.60;;;;;;5097973;28;20445;-58
2022/08/03 13:11:24;;;;;;;2.93;2.40;;;34.60;41.40;;;;;;5098327;28;20960;-57
2022/08/03 13:13:52;;;;;;;4.00;3.13;;;34.70;41.50;;;;;;5098196;28;20548;-56